Flight Track Log - Related Links

Times and Time Zones

All times are in EDT time to prevent confusion due to time zone crossing. See the THY786 flight status page for this flight to view local times or setup timezone preferences in your user account.

Time Position Orientation Groundspeed Altitude Reporting Facility
EDT Latitude Longitude Course Direction KTS MPH feet Rate Location/Type
Tue 06:37:00 AM 40.1239 29.4729 150° Southeast  Level Estimated
Tue 06:38:00 AM 40.0289 29.5443 150° Southeast  Level Estimated
Tue 06:39:00 AM 39.9338 29.6155 150° Southeast  Level Estimated
Tue 06:40:00 AM 39.8387 29.6866 150° Southeast  Level Estimated
Tue 06:41:00 AM 39.7436 29.7574 150° Southeast  Level Estimated
Tue 06:42:00 AM 39.6484 29.8280 150° Southeast  Level Estimated
Tue 06:43:00 AM 39.5532 29.8984 150° Southeast  Level Estimated
Tue 06:44:00 AM 39.4579 29.9687 150° Southeast  Level Estimated
Tue 06:45:00 AM 39.3626 30.0387 150° Southeast  Level Estimated
Tue 06:46:00 AM 39.2673 30.1086 150° Southeast  Level Estimated
Tue 06:47:00 AM 39.1719 30.1782 150° Southeast  Level Estimated
Tue 06:48:00 AM 39.0764 30.2477 151° Southeast  Level Estimated
Tue 06:49:00 AM 38.9810 30.3170 151° Southeast  Level Estimated
Tue 06:50:00 AM 38.8854 30.3861 151° Southeast  Level Estimated
Tue 06:51:00 AM 38.7899 30.4550 151° Southeast  Level Estimated
Tue 06:52:00 AM 38.6943 30.5237 151° Southeast  Level Estimated
Tue 06:53:00 AM 38.5987 30.5923 151° Southeast  Level Estimated
Tue 06:54:00 AM 38.5030 30.6606 151° Southeast  Level Estimated
Tue 06:55:00 AM 38.4073 30.7288 151° Southeast  Level Estimated
Tue 06:56:00 AM 38.3115 30.7968 151° Southeast  Level Estimated
Tue 06:57:00 AM 38.2157 30.8646 151° Southeast  Level Estimated
Tue 06:58:00 AM 38.1199 30.9323 151° Southeast  Level Estimated
Tue 06:59:00 AM 38.0240 30.9998 151° Southeast  Level Estimated
Tue 07:00:00 AM 37.9281 31.0670 151° Southeast  Level Estimated
Tue 07:01:00 AM 37.8322 31.1341 151° Southeast  Level Estimated
Tue 07:02:00 AM 37.7362 31.2011 151° Southeast  Level Estimated
Tue 07:03:00 AM 37.6402 31.2679 151° Southeast  Level Estimated
Tue 07:04:00 AM 37.5441 31.3344 151° Southeast  Level Estimated
Tue 07:05:00 AM 37.4480 31.4009 151° Southeast  Level Estimated
Tue 07:06:00 AM 37.3519 31.4671 151° Southeast  Level Estimated
Tue 07:07:00 AM 37.2557 31.5332 151° Southeast  Level Estimated
Tue 07:08:00 AM 37.1595 31.5991 151° Southeast  Level Estimated
Tue 07:09:00 AM 37.0633 31.6649 151° Southeast  Level Estimated
Tue 07:10:00 AM 36.9670 31.7304 151° Southeast  Level Estimated
Tue 07:11:00 AM 36.8707 31.7959 151° Southeast  Level Estimated
Tue 07:12:00 AM 36.7743 31.8611 152° Southeast  Level Estimated
Tue 07:13:00 AM 36.6779 31.9262 152° Southeast  Level Estimated
Tue 07:14:00 AM 36.5815 31.9911 152° Southeast  Level Estimated
Tue 07:15:00 AM 36.4850 32.0559 152° Southeast  Level Estimated
Tue 07:16:00 AM 36.3885 32.1205 152° Southeast  Level Estimated
Tue 07:17:00 AM 36.2920 32.1849 152° Southeast  Level Estimated
Tue 07:18:00 AM 36.1955 32.2492 152° Southeast  Level Estimated
Tue 07:19:00 AM 36.0989 32.3133 152° Southeast  Level Estimated
Tue 07:20:00 AM 36.0022 32.3773 152° Southeast  Level Estimated
Tue 07:21:00 AM 35.9056 32.4411 152° Southeast  Level Estimated
Tue 07:22:00 AM 35.8089 32.5047 152° Southeast  Level Estimated
Tue 07:23:00 AM 35.7121 32.5682 152° Southeast  Level Estimated
Tue 07:24:00 AM 35.6154 32.6316 152° Southeast  Level Estimated
Tue 07:25:00 AM 35.5186 32.6948 152° Southeast  Level Estimated
Tue 07:26:00 AM 35.4217 32.7578 152° Southeast  Level Estimated
Tue 07:27:00 AM 35.3249 32.8207 152° Southeast  Level Estimated
Tue 07:28:00 AM 35.2280 32.8834 152° Southeast  Level Estimated
Tue 07:29:00 AM 35.1311 32.9460 152° Southeast  Level Estimated
Tue 07:30:00 AM 35.0341 33.0085 152° Southeast  Level Estimated
Tue 07:31:00 AM 34.9371 33.0708 152° Southeast  Level Estimated
Tue 07:32:00 AM 34.8401 33.1329 152° Southeast  Level Estimated
Tue 07:33:00 AM 34.7430 33.1949 152° Southeast  Level Estimated
Tue 07:34:00 AM 34.6459 33.2567 152° Southeast  Level Estimated
Tue 07:35:00 AM 34.5488 33.3184 152° Southeast  Level Estimated
Tue 07:36:00 AM 34.4517 33.3800 152° Southeast  Level Estimated
Tue 07:37:00 AM 34.3545 33.4414 152° Southeast  Level Estimated
Tue 07:38:00 AM 34.2573 33.5027 152° Southeast  Level Estimated
Tue 07:39:00 AM 34.1600 33.5638 153° Southeast  Level Estimated
Tue 07:40:00 AM 34.0628 33.6248 153° Southeast  Level Estimated
Tue 07:41:00 AM 33.9655 33.6857 153° Southeast  Level Estimated
Tue 07:42:00 AM 33.8681 33.7464 153° Southeast  Level Estimated
Tue 07:43:00 AM 33.7708 33.8070 153° Southeast  Level Estimated
Tue 07:44:00 AM 33.6734 33.8674 153° Southeast  Level Estimated
Tue 07:45:00 AM 33.5760 33.9277 153° Southeast  Level Estimated
Tue 07:46:00 AM 33.4785 33.9879 153° Southeast  Level Estimated
Tue 07:47:00 AM 33.3811 34.0479 153° Southeast  Level Estimated
Tue 07:48:00 AM 33.2835 34.1078 153° Southeast  Level Estimated
Tue 07:49:00 AM 33.1860 34.1676 153° Southeast  Level Estimated
Tue 07:50:00 AM 33.0884 34.2272 153° Southeast  Level Estimated
Tue 07:51:00 AM 32.9908 34.2867 153° Southeast  Level Estimated
Tue 07:52:00 AM 32.8932 34.3461 153° Southeast  Level Estimated
Tue 07:53:00 AM 32.7956 34.4053 153° Southeast  Level Estimated
Tue 07:54:00 AM 32.6979 34.4644 153° Southeast  Level Estimated
Tue 07:55:00 AM 32.6002 34.5234 153° Southeast  Level Estimated
Tue 07:56:00 AM 32.5025 34.5822 153° Southeast  Level Estimated
Tue 07:57:00 AM 32.4047 34.6409 153° Southeast  Level Estimated
Tue 07:58:00 AM 32.3069 34.6996 153° Southeast  Level Estimated
Tue 07:59:00 AM 32.2091 34.7580 153° Southeast  Level Estimated
Tue 08:00:00 AM 32.1113 34.8164 153° Southeast  Level Estimated
Tue 08:01:00 AM 32.0134 34.8746 153° Southeast  Level Estimated
Tue 08:02:00 AM 32.0095 34.8769 153° Southeast  Level Estimated
Tue 08:03:00 AM 32.0095 34.8769 North  Level Estimated
Tue 08:04:00 AM 32.0095 34.8769 North  Level Estimated
Tue 08:05:00 AM 32.0095 34.8769 North  Level Estimated
Tue 08:06:00 AM 32.0095 34.8769 North  Level Estimated
Tue 08:07:00 AM 32.0095 34.8769 North  Level Estimated
Tue 08:08:00 AM 32.0095 34.8769 North  Level Estimated
Tue 08:09:00 AM 32.0095 34.8769 North  Level Estimated
Tue 08:10:00 AM 32.0095 34.8769 North  Level Estimated
Tue 08:11:00 AM 32.0095 34.8769 North  Level Estimated
Tue 08:12:00 AM 32.0095 34.8769 North  Level Estimated
Tue 08:13:00 AM 32.0095 34.8769 North  Level Estimated
Tue 08:14:00 AM 32.0095 34.8769 North  Level Estimated
Tue 08:15:00 AM 32.0095 34.8769 North  Level Estimated
Tue 08:16:00 AM 32.0095 34.8769 North  Level Estimated
Tue 08:17:00 AM 32.0095 34.8769 North  Level Estimated

Login

Don't have an account? Register now (free) for customized features, flight alerts, and more!